sensor_id;sensor_type;location;lat;lon;timestamp;pressure;altitude;pressure_sealevel;temperature;humidity
75852;BME280;64500;52.632;20.656;2022-10-24T00:00:28;100471.55;;;9.12;82.28
75852;BME280;64500;52.632;20.656;2022-10-24T00:03:15;100472.39;;;9.14;82.30
75852;BME280;64500;52.632;20.656;2022-10-24T00:05:44;100473.83;;;9.13;82.20
75852;BME280;64500;52.632;20.656;2022-10-24T00:08:11;100472.27;;;9.10;82.22
75852;BME280;64500;52.632;20.656;2022-10-24T00:10:43;100471.28;;;9.06;82.41
75852;BME280;64500;52.632;20.656;2022-10-24T00:13:11;100474.33;;;9.02;82.56
75852;BME280;64500;52.632;20.656;2022-10-24T00:15:42;100478.05;;;9.02;82.19
75852;BME280;64500;52.632;20.656;2022-10-24T00:18:09;100486.70;;;9.01;82.21
75852;BME280;64500;52.632;20.656;2022-10-24T00:20:36;100487.66;;;9.07;82.18
75852;BME280;64500;52.632;20.656;2022-10-24T00:23:04;100488.09;;;9.13;82.09
75852;BME280;64500;52.632;20.656;2022-10-24T00:25:30;100485.25;;;9.14;81.97
75852;BME280;64500;52.632;20.656;2022-10-24T00:27:57;100489.02;;;9.10;82.00
75852;BME280;64500;52.632;20.656;2022-10-24T00:30:23;100495.27;;;9.05;81.93
75852;BME280;64500;52.632;20.656;2022-10-24T00:32:51;100495.80;;;9.05;82.19
75852;BME280;64500;52.632;20.656;2022-10-24T00:35:18;100495.27;;;9.05;82.51
75852;BME280;64500;52.632;20.656;2022-10-24T00:37:45;100486.69;;;9.02;82.43
75852;BME280;64500;52.632;20.656;2022-10-24T00:40:16;100471.73;;;8.99;82.61
75852;BME280;64500;52.632;20.656;2022-10-24T00:42:43;100469.79;;;9.00;82.76
75852;BME280;64500;52.632;20.656;2022-10-24T00:50:51;100463.48;;;8.98;83.45
75852;BME280;64500;52.632;20.656;2022-10-24T00:53:20;100465.42;;;8.97;83.76
75852;BME280;64500;52.632;20.656;2022-10-24T00:55:51;100461.86;;;8.99;83.74
75852;BME280;64500;52.632;20.656;2022-10-24T00:58:20;100459.39;;;9.00;83.75
75852;BME280;64500;52.632;20.656;2022-10-24T01:00:49;100459.04;;;9.00;83.90
75852;BME280;64500;52.632;20.656;2022-10-24T01:03:16;100453.02;;;9.02;84.13
75852;BME280;64500;52.632;20.656;2022-10-24T01:14:59;100452.14;;;9.13;84.40
75852;BME280;64500;52.632;20.656;2022-10-24T01:17:46;100445.40;;;9.14;84.76
75852;BME280;64500;52.632;20.656;2022-10-24T01:28:12;100430.36;;;9.18;85.16
75852;BME280;64500;52.632;20.656;2022-10-24T01:30:44;100430.52;;;9.17;85.46
75852;BME280;64500;52.632;20.656;2022-10-24T01:33:34;100427.31;;;9.20;85.35
75852;BME280;64500;52.632;20.656;2022-10-24T01:36:10;100415.95;;;9.24;85.32
75852;BME280;64500;52.632;20.656;2022-10-24T01:38:57;100409.42;;;9.25;85.40
75852;BME280;64500;52.632;20.656;2022-10-24T01:41:28;100397.58;;;9.26;85.49
75852;BME280;64500;52.632;20.656;2022-10-24T01:44:04;100394.74;;;9.27;85.62
75852;BME280;64500;52.632;20.656;2022-10-24T01:46:35;100389.56;;;9.30;85.82
75852;BME280;64500;52.632;20.656;2022-10-24T01:49:07;100386.39;;;9.30;85.81
75852;BME280;64500;52.632;20.656;2022-10-24T01:51:35;100386.04;;;9.30;85.86
75852;BME280;64500;52.632;20.656;2022-10-24T01:54:05;100380.20;;;9.31;85.99
75852;BME280;64500;52.632;20.656;2022-10-24T01:56:32;100378.23;;;9.32;85.71
75852;BME280;64500;52.632;20.656;2022-10-24T01:59:07;100367.98;;;9.34;85.84
75852;BME280;64500;52.632;20.656;2022-10-24T02:01:35;100362.65;;;9.35;85.98
75852;BME280;64500;52.632;20.656;2022-10-24T02:04:07;100361.58;;;9.36;86.21
75852;BME280;64500;52.632;20.656;2022-10-24T02:06:38;100352.89;;;9.38;86.06
75852;BME280;64500;52.632;20.656;2022-10-24T02:09:10;100353.58;;;9.40;86.29
75852;BME280;64500;52.632;20.656;2022-10-24T02:11:41;100350.90;;;9.40;86.20
75852;BME280;64500;52.632;20.656;2022-10-24T02:16:43;100330.83;;;9.39;86.15
75852;BME280;64500;52.632;20.656;2022-10-24T02:19:11;100329.40;;;9.40;86.56
75852;BME280;64500;52.632;20.656;2022-10-24T02:21:58;100328.48;;;9.42;86.36
75852;BME280;64500;52.632;20.656;2022-10-24T02:24:36;100329.34;;;9.43;86.23
75852;BME280;64500;52.632;20.656;2022-10-24T02:27:13;100330.41;;;9.42;86.24
75852;BME280;64500;52.632;20.656;2022-10-24T02:30:06;100329.02;;;9.41;86.40
75852;BME280;64500;52.632;20.656;2022-10-24T02:32:41;100330.30;;;9.38;86.09
75852;BME280;64500;52.632;20.656;2022-10-24T02:35:10;100333.94;;;9.33;86.35
75852;BME280;64500;52.632;20.656;2022-10-24T02:37:43;100336.11;;;9.30;86.05
75852;BME280;64500;52.632;20.656;2022-10-24T02:40:14;100341.96;;;9.29;85.90
75852;BME280;64500;52.632;20.656;2022-10-24T02:42:44;100338.52;;;9.25;85.95
75852;BME280;64500;52.632;20.656;2022-10-24T02:45:14;100336.99;;;9.22;86.00
75852;BME280;64500;52.632;20.656;2022-10-24T02:47:41;100338.98;;;9.19;85.73
75852;BME280;64500;52.632;20.656;2022-10-24T02:50:11;100343.05;;;9.18;85.70
75852;BME280;64500;52.632;20.656;2022-10-24T02:52:40;100343.55;;;9.20;85.78
75852;BME280;64500;52.632;20.656;2022-10-24T02:55:08;100339.67;;;9.20;85.64
75852;BME280;64500;52.632;20.656;2022-10-24T02:57:38;100329.36;;;9.15;85.49
75852;BME280;64500;52.632;20.656;2022-10-24T03:00:06;100326.06;;;9.12;85.60
75852;BME280;64500;52.632;20.656;2022-10-24T03:02:33;100331.45;;;9.07;85.38
75852;BME280;64500;52.632;20.656;2022-10-24T03:05:00;100333.75;;;9.06;85.60
75852;BME280;64500;52.632;20.656;2022-10-24T03:07:27;100328.98;;;9.06;85.46
75852;BME280;64500;52.632;20.656;2022-10-24T03:09:53;100330.88;;;9.00;85.39
75852;BME280;64500;52.632;20.656;2022-10-24T03:12:20;100337.41;;;8.99;85.42
75852;BME280;64500;52.632;20.656;2022-10-24T03:14:47;100341.79;;;9.01;85.24
75852;BME280;64500;52.632;20.656;2022-10-24T03:17:13;100340.52;;;9.02;85.18
75852;BME280;64500;52.632;20.656;2022-10-24T03:19:40;100339.81;;;9.03;85.10
75852;BME280;64500;52.632;20.656;2022-10-24T03:22:07;100330.70;;;9.00;85.22
75852;BME280;64500;52.632;20.656;2022-10-24T03:24:34;100319.64;;;8.97;84.97
75852;BME280;64500;52.632;20.656;2022-10-24T03:27:01;100322.88;;;8.94;84.93
75852;BME280;64500;52.632;20.656;2022-10-24T03:29:28;100321.34;;;8.91;84.72
75852;BME280;64500;52.632;20.656;2022-10-24T03:31:55;100318.24;;;8.87;84.76
75852;BME280;64500;52.632;20.656;2022-10-24T03:34:22;100314.79;;;8.84;84.89
75852;BME280;64500;52.632;20.656;2022-10-24T03:36:48;100312.91;;;8.80;84.78
75852;BME280;64500;52.632;20.656;2022-10-24T03:39:15;100316.35;;;8.75;84.81
75852;BME280;64500;52.632;20.656;2022-10-24T03:41:42;100314.70;;;8.69;84.97
75852;BME280;64500;52.632;20.656;2022-10-24T03:44:08;100308.10;;;8.63;85.06
75852;BME280;64500;52.632;20.656;2022-10-24T03:46:35;100301.80;;;8.60;85.36
75852;BME280;64500;52.632;20.656;2022-10-24T03:49:02;100299.17;;;8.59;85.15
75852;BME280;64500;52.632;20.656;2022-10-24T03:51:29;100296.14;;;8.61;85.43
75852;BME280;64500;52.632;20.656;2022-10-24T03:53:55;100293.98;;;8.63;85.65
75852;BME280;64500;52.632;20.656;2022-10-24T03:56:22;100293.25;;;8.65;85.86
75852;BME280;64500;52.632;20.656;2022-10-24T03:58:49;100292.74;;;8.64;85.88
75852;BME280;64500;52.632;20.656;2022-10-24T04:01:16;100290.61;;;8.65;86.02
75852;BME280;64500;52.632;20.656;2022-10-24T04:03:44;100289.69;;;8.68;85.87
75852;BME280;64500;52.632;20.656;2022-10-24T04:06:12;100285.94;;;8.71;85.93
75852;BME280;64500;52.632;20.656;2022-10-24T04:08:39;100284.34;;;8.72;86.16
75852;BME280;64500;52.632;20.656;2022-10-24T04:11:06;100279.34;;;8.76;86.30
75852;BME280;64500;52.632;20.656;2022-10-24T04:13:33;100274.22;;;8.76;86.33
75852;BME280;64500;52.632;20.656;2022-10-24T04:16:00;100270.63;;;8.79;86.42
75852;BME280;64500;52.632;20.656;2022-10-24T04:18:27;100268.65;;;8.82;86.46
75852;BME280;64500;52.632;20.656;2022-10-24T04:20:54;100269.52;;;8.82;86.48
75852;BME280;64500;52.632;20.656;2022-10-24T04:23:20;100265.27;;;8.83;86.50
75852;BME280;64500;52.632;20.656;2022-10-24T04:25:47;100259.05;;;8.85;86.59
75852;BME280;64500;52.632;20.656;2022-10-24T04:28:14;100256.91;;;8.87;86.50
75852;BME280;64500;52.632;20.656;2022-10-24T04:30:42;100253.06;;;8.86;86.53
75852;BME280;64500;52.632;20.656;2022-10-24T04:33:08;100254.28;;;8.86;86.70
75852;BME280;64500;52.632;20.656;2022-10-24T04:35:35;100247.74;;;8.87;86.67
75852;BME280;64500;52.632;20.656;2022-10-24T04:38:02;100243.34;;;8.87;86.56
75852;BME280;64500;52.632;20.656;2022-10-24T04:40:29;100238.92;;;8.87;86.91
75852;BME280;64500;52.632;20.656;2022-10-24T04:42:56;100237.45;;;8.90;86.88
75852;BME280;64500;52.632;20.656;2022-10-24T04:45:22;100233.16;;;8.93;86.55
75852;BME280;64500;52.632;20.656;2022-10-24T04:47:49;100224.70;;;8.94;86.82
75852;BME280;64500;52.632;20.656;2022-10-24T04:50:16;100220.23;;;8.96;86.94
75852;BME280;64500;52.632;20.656;2022-10-24T04:52:43;100212.44;;;8.98;87.05
75852;BME280;64500;52.632;20.656;2022-10-24T04:55:09;100203.23;;;9.00;86.98
75852;BME280;64500;52.632;20.656;2022-10-24T04:57:36;100202.84;;;9.02;86.75
75852;BME280;64500;52.632;20.656;2022-10-24T05:00:04;100207.55;;;9.04;86.96
75852;BME280;64500;52.632;20.656;2022-10-24T05:02:31;100210.83;;;9.08;87.18
75852;BME280;64500;52.632;20.656;2022-10-24T05:04:58;100212.17;;;9.11;86.89
75852;BME280;64500;52.632;20.656;2022-10-24T05:07:25;100210.55;;;9.13;87.07
75852;BME280;64500;52.632;20.656;2022-10-24T05:09:51;100211.41;;;9.14;87.23
75852;BME280;64500;52.632;20.656;2022-10-24T05:12:18;100209.06;;;9.16;87.21
75852;BME280;64500;52.632;20.656;2022-10-24T05:14:44;100207.81;;;9.17;87.25
75852;BME280;64500;52.632;20.656;2022-10-24T05:17:13;100204.28;;;9.18;87.12
75852;BME280;64500;52.632;20.656;2022-10-24T05:19:40;100197.92;;;9.18;87.32
75852;BME280;64500;52.632;20.656;2022-10-24T05:22:07;100193.48;;;9.20;87.47
75852;BME280;64500;52.632;20.656;2022-10-24T05:24:33;100196.98;;;9.21;87.27
75852;BME280;64500;52.632;20.656;2022-10-24T05:27:00;100198.57;;;9.21;87.41
75852;BME280;64500;52.632;20.656;2022-10-24T05:29:29;100198.36;;;9.23;87.54
75852;BME280;64500;52.632;20.656;2022-10-24T05:31:56;100199.34;;;9.26;87.46
75852;BME280;64500;52.632;20.656;2022-10-24T05:34:22;100201.75;;;9.28;87.49
75852;BME280;64500;52.632;20.656;2022-10-24T05:36:49;100208.06;;;9.30;87.52
75852;BME280;64500;52.632;20.656;2022-10-24T05:39:16;100214.52;;;9.33;87.34
75852;BME280;64500;52.632;20.656;2022-10-24T05:41:43;100218.15;;;9.37;87.29
75852;BME280;64500;52.632;20.656;2022-10-24T05:44:11;100215.06;;;9.41;87.47
75852;BME280;64500;52.632;20.656;2022-10-24T05:46:38;100214.27;;;9.45;87.34
75852;BME280;64500;52.632;20.656;2022-10-24T05:49:05;100212.44;;;9.48;87.21
75852;BME280;64500;52.632;20.656;2022-10-24T05:51:31;100210.61;;;9.51;87.24
75852;BME280;64500;52.632;20.656;2022-10-24T05:53:58;100212.79;;;9.56;87.26
75852;BME280;64500;52.632;20.656;2022-10-24T05:56:25;100212.73;;;9.59;87.25
75852;BME280;64500;52.632;20.656;2022-10-24T05:58:51;100214.77;;;9.62;86.79
75852;BME280;64500;52.632;20.656;2022-10-24T06:01:18;100211.73;;;9.64;87.02
75852;BME280;64500;52.632;20.656;2022-10-24T06:03:44;100208.91;;;9.63;86.95
75852;BME280;64500;52.632;20.656;2022-10-24T06:06:12;100209.79;;;9.64;86.80
75852;BME280;64500;52.632;20.656;2022-10-24T06:08:38;100210.33;;;9.63;86.93
75852;BME280;64500;52.632;20.656;2022-10-24T06:11:09;100211.34;;;9.65;86.94
75852;BME280;64500;52.632;20.656;2022-10-24T06:13:37;100213.09;;;9.66;87.00
75852;BME280;64500;52.632;20.656;2022-10-24T06:16:07;100218.67;;;9.68;87.05
75852;BME280;64500;52.632;20.656;2022-10-24T06:18:35;100222.30;;;9.72;87.00
75852;BME280;64500;52.632;20.656;2022-10-24T06:21:05;100216.42;;;9.74;86.66
75852;BME280;64500;52.632;20.656;2022-10-24T06:23:34;100215.87;;;9.75;86.70
75852;BME280;64500;52.632;20.656;2022-10-24T06:26:01;100214.02;;;9.79;86.95
75852;BME280;64500;52.632;20.656;2022-10-24T06:28:27;100221.54;;;9.81;86.95
75852;BME280;64500;52.632;20.656;2022-10-24T06:30:54;100225.02;;;9.84;86.84
75852;BME280;64500;52.632;20.656;2022-10-24T06:33:21;100226.95;;;9.85;87.04
75852;BME280;64500;52.632;20.656;2022-10-24T06:35:47;100230.42;;;9.87;86.97
75852;BME280;64500;52.632;20.656;2022-10-24T06:38:14;100241.99;;;9.90;86.38
75852;BME280;64500;52.632;20.656;2022-10-24T06:40:40;100256.73;;;9.94;86.55
75852;BME280;64500;52.632;20.656;2022-10-24T06:43:08;100260.02;;;9.97;86.52
75852;BME280;64500;52.632;20.656;2022-10-24T06:45:36;100267.79;;;10.05;86.39
75852;BME280;64500;52.632;20.656;2022-10-24T06:48:03;100279.13;;;10.11;86.37
75852;BME280;64500;52.632;20.656;2022-10-24T06:50:30;100288.85;;;10.17;86.10
75852;BME280;64500;52.632;20.656;2022-10-24T06:52:57;100304.04;;;10.25;86.08
75852;BME280;64500;52.632;20.656;2022-10-24T06:55:24;100308.93;;;10.35;85.92
75852;BME280;64500;52.632;20.656;2022-10-24T06:57:52;100308.98;;;10.48;86.01
75852;BME280;64500;52.632;20.656;2022-10-24T07:00:18;100300.92;;;10.53;85.70
75852;BME280;64500;52.632;20.656;2022-10-24T07:02:45;100286.95;;;10.53;85.25
75852;BME280;64500;52.632;20.656;2022-10-24T07:05:12;100288.27;;;10.50;85.09
75852;BME280;64500;52.632;20.656;2022-10-24T07:07:41;100276.89;;;10.45;85.22
75852;BME280;64500;52.632;20.656;2022-10-24T07:10:11;100274.61;;;10.38;85.12
75852;BME280;64500;52.632;20.656;2022-10-24T07:12:39;100283.46;;;10.36;85.10
75852;BME280;64500;52.632;20.656;2022-10-24T07:15:06;100293.91;;;10.42;85.26
75852;BME280;64500;52.632;20.656;2022-10-24T07:17:43;100292.68;;;10.42;84.86
75852;BME280;64500;52.632;20.656;2022-10-24T07:20:12;100286.36;;;10.40;84.88
75852;BME280;64500;52.632;20.656;2022-10-24T07:22:39;100281.41;;;10.41;85.05
75852;BME280;64500;52.632;20.656;2022-10-24T07:25:07;100280.63;;;10.37;85.14
75852;BME280;64500;52.632;20.656;2022-10-24T07:27:34;100266.54;;;10.35;85.18
75852;BME280;64500;52.632;20.656;2022-10-24T07:30:01;100260.56;;;10.34;85.36
75852;BME280;64500;52.632;20.656;2022-10-24T07:32:28;100253.55;;;10.31;85.35
75852;BME280;64500;52.632;20.656;2022-10-24T07:34:54;100249.15;;;10.31;85.58
75852;BME280;64500;52.632;20.656;2022-10-24T07:37:21;100233.67;;;10.28;85.59
75852;BME280;64500;52.632;20.656;2022-10-24T07:39:47;100229.61;;;10.29;85.63
75852;BME280;64500;52.632;20.656;2022-10-24T07:42:14;100217.30;;;10.25;85.72
75852;BME280;64500;52.632;20.656;2022-10-24T07:44:42;100221.89;;;10.25;85.80
75852;BME280;64500;52.632;20.656;2022-10-24T07:47:08;100230.80;;;10.30;85.79
75852;BME280;64500;52.632;20.656;2022-10-24T07:49:35;100228.05;;;10.34;85.95
75852;BME280;64500;52.632;20.656;2022-10-24T07:52:04;100234.70;;;10.37;85.82
75852;BME280;64500;52.632;20.656;2022-10-24T07:54:31;100241.26;;;10.43;85.75
75852;BME280;64500;52.632;20.656;2022-10-24T07:56:57;100242.45;;;10.52;85.78
75852;BME280;64500;52.632;20.656;2022-10-24T07:59:24;100246.81;;;10.60;85.62
75852;BME280;64500;52.632;20.656;2022-10-24T08:01:50;100246.45;;;10.67;85.56
75852;BME280;64500;52.632;20.656;2022-10-24T08:04:17;100231.30;;;10.72;85.15
75852;BME280;64500;52.632;20.656;2022-10-24T08:06:43;100232.73;;;10.71;85.12
75852;BME280;64500;52.632;20.656;2022-10-24T08:09:10;100229.95;;;10.69;85.04
75852;BME280;64500;52.632;20.656;2022-10-24T08:11:38;100218.91;;;10.66;85.02
75852;BME280;64500;52.632;20.656;2022-10-24T08:14:05;100216.17;;;10.62;85.13
75852;BME280;64500;52.632;20.656;2022-10-24T08:16:33;100214.33;;;10.59;85.26
75852;BME280;64500;52.632;20.656;2022-10-24T08:19:00;100211.81;;;10.54;85.23
75852;BME280;64500;52.632;20.656;2022-10-24T08:21:27;100212.36;;;10.53;85.38
75852;BME280;64500;52.632;20.656;2022-10-24T08:23:54;100205.23;;;10.56;85.36
75852;BME280;64500;52.632;20.656;2022-10-24T08:26:23;100206.86;;;10.61;85.45
75852;BME280;64500;52.632;20.656;2022-10-24T08:28:50;100213.59;;;10.67;85.43
75852;BME280;64500;52.632;20.656;2022-10-24T08:31:19;100217.30;;;10.73;85.23
75852;BME280;64500;52.632;20.656;2022-10-24T08:33:49;100219.96;;;10.79;85.19
75852;BME280;64500;52.632;20.656;2022-10-24T08:36:23;100223.89;;;10.84;85.05
75852;BME280;64500;52.632;20.656;2022-10-24T08:38:50;100215.91;;;10.92;85.01
75852;BME280;64500;52.632;20.656;2022-10-24T08:41:36;100212.81;;;10.89;84.70
75852;BME280;64500;52.632;20.656;2022-10-24T08:53:00;100218.19;;;10.92;84.45
75852;BME280;64500;52.632;20.656;2022-10-24T08:55:49;100217.39;;;10.89;84.58
75852;BME280;64500;52.632;20.656;2022-10-24T09:00:48;100230.55;;;10.93;84.80
75852;BME280;64500;52.632;20.656;2022-10-24T09:06:11;100226.88;;;11.04;84.66
75852;BME280;64500;52.632;20.656;2022-10-24T09:11:53;100221.20;;;11.10;84.66
75852;BME280;64500;52.632;20.656;2022-10-24T09:14:34;100224.96;;;11.15;84.67
75852;BME280;64500;52.632;20.656;2022-10-24T09:20:30;100227.34;;;11.24;84.75
75852;BME280;64500;52.632;20.656;2022-10-24T09:22:33;100224.45;;;11.32;84.93
75852;BME280;64500;52.632;20.656;2022-10-24T09:25:05;100226.92;;;11.39;84.86
75852;BME280;64500;52.632;20.656;2022-10-24T09:27:35;100223.92;;;11.44;84.57
75852;BME280;64500;52.632;20.656;2022-10-24T09:30:04;100224.98;;;11.50;84.90
75852;BME280;64500;52.632;20.656;2022-10-24T09:32:33;100223.43;;;11.60;84.68
75852;BME280;64500;52.632;20.656;2022-10-24T09:35:15;100223.52;;;11.68;84.76
75852;BME280;64500;52.632;20.656;2022-10-24T09:37:45;100224.31;;;11.78;84.77
75852;BME280;64500;52.632;20.656;2022-10-24T09:46:12;100215.54;;;11.87;84.31
75852;BME280;64500;52.632;20.656;2022-10-24T09:51:07;100222.22;;;11.94;84.16
75852;BME280;64500;52.632;20.656;2022-10-24T09:53:37;100218.10;;;12.01;84.29
75852;BME280;64500;52.632;20.656;2022-10-24T09:56:14;100212.54;;;12.08;84.21
75852;BME280;64500;52.632;20.656;2022-10-24T09:58:41;100211.41;;;12.15;84.11
75852;BME280;64500;52.632;20.656;2022-10-24T10:03:42;100211.91;;;12.32;83.95
75852;BME280;64500;52.632;20.656;2022-10-24T10:06:18;100208.90;;;12.38;83.79
75852;BME280;64500;52.632;20.656;2022-10-24T10:08:56;100211.22;;;12.42;83.80
75852;BME280;64500;52.632;20.656;2022-10-24T10:11:25;100199.14;;;12.48;83.77
75852;BME280;64500;52.632;20.656;2022-10-24T10:13:58;100194.91;;;12.52;83.67
75852;BME280;64500;52.632;20.656;2022-10-24T10:16:28;100189.23;;;12.57;83.71
75852;BME280;64500;52.632;20.656;2022-10-24T10:22:03;100188.66;;;12.69;83.56
75852;BME280;64500;52.632;20.656;2022-10-24T10:27:21;100190.95;;;12.79;83.49
75852;BME280;64500;52.632;20.656;2022-10-24T10:29:48;100196.80;;;12.88;83.48
75852;BME280;64500;52.632;20.656;2022-10-24T10:32:33;100196.11;;;12.93;83.39
75852;BME280;64500;52.632;20.656;2022-10-24T10:35:23;100195.14;;;12.95;83.19
75852;BME280;64500;52.632;20.656;2022-10-24T10:38:12;100191.88;;;12.97;83.08
75852;BME280;64500;52.632;20.656;2022-10-24T10:40:44;100191.73;;;13.01;83.06
75852;BME280;64500;52.632;20.656;2022-10-24T10:43:30;100195.56;;;13.03;82.95
75852;BME280;64500;52.632;20.656;2022-10-24T10:54:11;100193.67;;;13.30;82.94
75852;BME280;64500;52.632;20.656;2022-10-24T11:10:36;100189.17;;;13.60;82.75
75852;BME280;64500;52.632;20.656;2022-10-24T11:13:20;100184.09;;;13.62;82.45
75852;BME280;64500;52.632;20.656;2022-10-24T11:15:55;100183.30;;;13.64;82.52
75852;BME280;64500;52.632;20.656;2022-10-24T11:18:29;100185.54;;;13.66;82.39
75852;BME280;64500;52.632;20.656;2022-10-24T11:21:10;100180.61;;;13.69;82.41
75852;BME280;64500;52.632;20.656;2022-10-24T11:24:17;100177.26;;;13.73;82.21
75852;BME280;64500;52.632;20.656;2022-10-24T11:26:53;100169.02;;;13.79;82.27
75852;BME280;64500;52.632;20.656;2022-10-24T11:29:52;100167.13;;;13.82;82.06
75852;BME280;64500;52.632;20.656;2022-10-24T11:32:23;100163.08;;;13.90;82.17
75852;BME280;64500;52.632;20.656;2022-10-24T11:35:24;100164.05;;;13.96;82.26
75852;BME280;64500;52.632;20.656;2022-10-24T11:38:15;100164.89;;;14.02;82.23
75852;BME280;64500;52.632;20.656;2022-10-24T11:40:45;100162.21;;;14.06;82.06
75852;BME280;64500;52.632;20.656;2022-10-24T11:43:23;100160.77;;;14.07;81.96
75852;BME280;64500;52.632;20.656;2022-10-24T11:45:59;100163.55;;;14.12;82.06
75852;BME280;64500;52.632;20.656;2022-10-24T11:51:25;100168.27;;;14.22;81.61
75852;BME280;64500;52.632;20.656;2022-10-24T11:54:07;100170.80;;;14.22;81.40
75852;BME280;64500;52.632;20.656;2022-10-24T11:56:41;100167.36;;;14.23;81.38
75852;BME280;64500;52.632;20.656;2022-10-24T11:59:15;100168.52;;;14.17;80.86
75852;BME280;64500;52.632;20.656;2022-10-24T12:10:13;100168.05;;;14.15;81.22
75852;BME280;64500;52.632;20.656;2022-10-24T12:16:00;100153.92;;;14.26;81.25
75852;BME280;64500;52.632;20.656;2022-10-24T12:18:35;100140.75;;;14.30;81.34
75852;BME280;64500;52.632;20.656;2022-10-24T12:21:12;100138.84;;;14.33;81.39
75852;BME280;64500;52.632;20.656;2022-10-24T12:23:41;100138.23;;;14.38;81.27
75852;BME280;64500;52.632;20.656;2022-10-24T12:26:26;100135.83;;;14.46;81.29
75852;BME280;64500;52.632;20.656;2022-10-24T12:29:05;100129.86;;;14.51;80.93
75852;BME280;64500;52.632;20.656;2022-10-24T12:31:35;100130.05;;;14.52;80.78
75852;BME280;64500;52.632;20.656;2022-10-24T12:39:37;100127.27;;;14.70;81.11
75852;BME280;64500;52.632;20.656;2022-10-24T12:42:15;100122.16;;;14.73;80.93
75852;BME280;64500;52.632;20.656;2022-10-24T12:44:43;100120.59;;;14.76;80.81
75852;BME280;64500;52.632;20.656;2022-10-24T12:52:48;100128.77;;;14.88;80.59
75852;BME280;64500;52.632;20.656;2022-10-24T12:58:29;100120.48;;;14.90;80.34
75852;BME280;64500;52.632;20.656;2022-10-24T13:01:00;100121.63;;;14.93;80.36
75852;BME280;64500;52.632;20.656;2022-10-24T13:07:05;100120.25;;;14.99;80.21
75852;BME280;64500;52.632;20.656;2022-10-24T13:09:37;100122.18;;;15.04;80.29
75852;BME280;64500;52.632;20.656;2022-10-24T13:17:52;100127.39;;;15.06;79.93
75852;BME280;64500;52.632;20.656;2022-10-24T13:20:28;100123.61;;;15.07;79.97
75852;BME280;64500;52.632;20.656;2022-10-24T13:23:12;100120.52;;;15.08;79.78
75852;BME280;64500;52.632;20.656;2022-10-24T13:25:40;100118.51;;;15.06;79.50
75852;BME280;64500;52.632;20.656;2022-10-24T13:28:35;100112.23;;;15.03;79.46
75852;BME280;64500;52.632;20.656;2022-10-24T13:36:10;100109.85;;;15.08;79.56
75852;BME280;64500;52.632;20.656;2022-10-24T13:38:56;100110.42;;;15.12;79.54
75852;BME280;64500;52.632;20.656;2022-10-24T13:41:31;100115.52;;;15.16;79.40
75852;BME280;64500;52.632;20.656;2022-10-24T13:46:36;100102.79;;;15.22;79.30
75852;BME280;64500;52.632;20.656;2022-10-24T13:49:05;100098.70;;;15.18;79.06
75852;BME280;64500;52.632;20.656;2022-10-24T13:51:41;100096.02;;;15.15;79.07
75852;BME280;64500;52.632;20.656;2022-10-24T13:54:19;100096.21;;;15.14;78.99
75852;BME280;64500;52.632;20.656;2022-10-24T13:56:48;100097.20;;;15.16;79.10
75852;BME280;64500;52.632;20.656;2022-10-24T13:59:35;100094.84;;;15.17;79.05
75852;BME280;64500;52.632;20.656;2022-10-24T14:02:05;100096.21;;;15.22;79.06
75852;BME280;64500;52.632;20.656;2022-10-24T14:04:33;100101.42;;;15.24;79.05
75852;BME280;64500;52.632;20.656;2022-10-24T14:07:06;100108.49;;;15.29;78.99
75852;BME280;64500;52.632;20.656;2022-10-24T14:09:39;100113.52;;;15.32;78.99
75852;BME280;64500;52.632;20.656;2022-10-24T14:12:16;100110.86;;;15.36;78.99
75852;BME280;64500;52.632;20.656;2022-10-24T14:14:46;100114.56;;;15.37;78.80
75852;BME280;64500;52.632;20.656;2022-10-24T14:19:48;100117.84;;;15.39;78.63
75852;BME280;64500;52.632;20.656;2022-10-24T14:22:21;100121.64;;;15.38;78.43
75852;BME280;64500;52.632;20.656;2022-10-24T14:24:48;100124.91;;;15.37;78.61
75852;BME280;64500;52.632;20.656;2022-10-24T14:27:16;100125.49;;;15.35;78.54
75852;BME280;64500;52.632;20.656;2022-10-24T14:29:53;100126.29;;;15.34;78.37
75852;BME280;64500;52.632;20.656;2022-10-24T14:32:21;100121.60;;;15.27;78.27
75852;BME280;64500;52.632;20.656;2022-10-24T14:34:49;100121.75;;;15.17;78.06
75852;BME280;64500;52.632;20.656;2022-10-24T14:37:30;100123.16;;;15.17;78.33
75852;BME280;64500;52.632;20.656;2022-10-24T14:39:58;100120.86;;;15.13;78.12
75852;BME280;64500;52.632;20.656;2022-10-24T14:42:26;100120.52;;;15.12;78.27
75852;BME280;64500;52.632;20.656;2022-10-24T14:44:54;100122.52;;;15.11;78.18
75852;BME280;64500;52.632;20.656;2022-10-24T14:47:35;100120.73;;;15.08;78.09
75852;BME280;64500;52.632;20.656;2022-10-24T14:50:32;100124.51;;;15.00;77.92
75852;BME280;64500;52.632;20.656;2022-10-24T14:52:59;100128.71;;;14.93;78.14
75852;BME280;64500;52.632;20.656;2022-10-24T14:55:26;100128.52;;;14.86;78.02
75852;BME280;64500;52.632;20.656;2022-10-24T14:57:53;100132.01;;;14.79;78.14
75852;BME280;64500;52.632;20.656;2022-10-24T15:00:26;100129.34;;;14.75;78.01
75852;BME280;64500;52.632;20.656;2022-10-24T15:02:56;100125.98;;;14.68;78.09
75852;BME280;64500;52.632;20.656;2022-10-24T15:05:30;100126.13;;;14.60;78.13
75852;BME280;64500;52.632;20.656;2022-10-24T15:10:39;100129.50;;;14.52;78.41
75852;BME280;64500;52.632;20.656;2022-10-24T15:13:19;100129.08;;;14.54;78.46
75852;BME280;64500;52.632;20.656;2022-10-24T15:15:51;100125.48;;;14.55;78.42
75852;BME280;64500;52.632;20.656;2022-10-24T15:18:29;100116.41;;;14.55;78.32